createdAt,value
2019-05-10T00:00:27.842Z,15.26
2019-05-10T00:03:14.163Z,16.52
2019-05-10T00:06:00.513Z,15.44
2019-05-10T00:08:46.663Z,15.66
2019-05-10T00:11:39.653Z,16.56
2019-05-10T00:14:29.054Z,14.91
2019-05-10T00:17:11.795Z,15.91
2019-05-10T00:19:40.404Z,15.32
2019-05-10T00:22:09.017Z,15.71
2019-05-10T00:24:37.689Z,16.10
2019-05-10T00:27:06.379Z,15.63
2019-05-10T00:29:35.006Z,15.68
2019-05-10T00:32:03.641Z,15.14
2019-05-10T00:34:32.492Z,15.57
2019-05-10T00:37:01.131Z,15.06
2019-05-10T00:39:29.736Z,15.74
2019-05-10T00:41:58.575Z,16.48
2019-05-10T00:44:27.170Z,15.63
2019-05-10T00:46:55.795Z,15.63
2019-05-10T00:49:24.384Z,16.45
2019-05-10T00:51:53.148Z,16.50
2019-05-10T00:54:21.886Z,15.73
2019-05-10T00:56:50.501Z,15.74
2019-05-10T00:59:19.103Z,16.01
2019-05-10T01:01:47.784Z,15.96
2019-05-10T01:04:16.418Z,16.21
2019-05-10T01:06:45.255Z,16.51
2019-05-10T01:09:14.120Z,16.44
2019-05-10T01:11:42.795Z,15.42
2019-05-10T01:14:11.726Z,15.34
2019-05-10T01:16:40.351Z,15.38
2019-05-10T01:19:08.930Z,15.06
2019-05-10T01:21:37.540Z,15.06
2019-05-10T01:24:06.162Z,15.68
2019-05-10T01:26:34.776Z,14.85
2019-05-10T01:29:03.537Z,15.51
2019-05-10T01:31:32.387Z,15.43
2019-05-10T01:34:00.988Z,15.30
2019-05-10T01:36:29.830Z,16.33
2019-05-10T01:38:58.692Z,14.68
2019-05-10T01:41:27.312Z,15.44
2019-05-10T01:43:56.051Z,14.77
2019-05-10T01:46:24.685Z,14.77
2019-05-10T01:48:53.271Z,14.65
2019-05-10T01:51:22.205Z,15.35
2019-05-10T01:53:50.917Z,15.50
2019-05-10T01:56:19.606Z,15.46
2019-05-10T01:58:48.196Z,15.42
2019-05-10T02:01:16.824Z,15.62
2019-05-10T02:03:45.460Z,15.11
2019-05-10T02:06:14.095Z,15.51
2019-05-10T02:08:42.857Z,14.65
2019-05-10T02:11:11.440Z,15.51
2019-05-10T02:13:40.129Z,14.88
2019-05-10T02:16:09.135Z,14.88
2019-05-10T02:18:38.221Z,14.67
2019-05-10T02:21:07.102Z,14.49
2019-05-10T02:23:35.698Z,14.49
2019-05-10T02:26:09.516Z,14.12
2019-05-10T02:28:34.788Z,14.06
2019-05-10T02:31:03.447Z,14.28
2019-05-10T02:33:32.050Z,14.28
2019-05-10T02:36:00.877Z,14.28
2019-05-10T02:38:29.648Z,14.47
2019-05-10T02:40:58.317Z,14.42
2019-05-10T02:43:27.509Z,14.42
2019-05-10T02:45:56.651Z,15.22
2019-05-10T02:48:25.517Z,14.60
2019-05-10T02:50:54.112Z,14.59
2019-05-10T02:53:22.816Z,14.59
2019-05-10T02:55:51.472Z,14.16
2019-05-10T02:58:20.083Z,14.14
2019-05-10T03:00:50.374Z,14.68
2019-05-10T03:03:20.150Z,14.68
2019-05-10T03:05:50.383Z,14.22
2019-05-10T03:08:18.994Z,14.93
2019-05-10T03:10:57.039Z,14.93
2019-05-10T03:13:29.079Z,14.30
2019-05-10T03:16:01.683Z,14.68
2019-05-10T03:18:31.841Z,14.45
2019-05-10T03:21:01.458Z,14.45
2019-05-10T03:23:30.520Z,14.59
2019-05-10T03:25:59.966Z,14.80
2019-05-10T03:28:28.773Z,15.03
2019-05-10T03:30:57.630Z,16.17
2019-05-10T03:33:26.417Z,15.12
2019-05-10T03:35:55.047Z,14.35
2019-05-10T03:38:23.944Z,13.77
2019-05-10T03:40:55.843Z,13.77
2019-05-10T03:43:24.456Z,14.83
2019-05-10T03:45:53.071Z,14.40
2019-05-10T03:48:21.768Z,13.34
2019-05-10T03:50:52.742Z,13.86
2019-05-10T03:53:20.702Z,13.86
2019-05-10T03:55:49.303Z,14.67
2019-05-10T03:58:17.939Z,14.31
2019-05-10T04:00:46.565Z,13.83
2019-05-10T04:03:15.241Z,13.82
2019-05-10T04:05:43.866Z,13.82
2019-05-10T04:08:12.505Z,14.25
2019-05-10T04:10:41.096Z,13.33
2019-05-10T04:13:09.887Z,13.53
2019-05-10T04:15:38.489Z,13.34
2019-05-10T04:18:07.167Z,14.40
2019-05-10T04:20:35.782Z,14.84
2019-05-10T04:23:04.399Z,14.50
2019-05-10T04:25:33.091Z,14.85
2019-05-10T04:28:01.763Z,14.85
2019-05-10T04:30:31.804Z,13.28
2019-05-10T04:33:00.686Z,13.28
2019-05-10T04:35:29.338Z,15.05
2019-05-10T04:37:57.933Z,15.05
2019-05-10T04:40:26.584Z,15.36
2019-05-10T04:42:55.295Z,15.36
2019-05-10T04:45:24.146Z,14.95
2019-05-10T04:47:53.003Z,14.41
2019-05-10T04:50:21.619Z,14.13
2019-05-10T04:52:50.216Z,13.89
2019-05-10T04:55:19.813Z,13.89
2019-05-10T04:57:50.985Z,14.46
2019-05-10T05:00:18.924Z,14.15
2019-05-10T05:02:47.563Z,13.97
2019-05-10T05:05:16.270Z,13.97
2019-05-10T05:07:45.105Z,14.40
2019-05-10T05:10:14.054Z,14.42
2019-05-10T05:12:42.724Z,14.18
2019-05-10T05:15:11.713Z,14.94
2019-05-10T05:17:40.566Z,14.94
2019-05-10T05:20:09.284Z,13.88
2019-05-10T05:22:38.206Z,13.91
2019-05-10T05:25:07.336Z,13.91
2019-05-10T05:27:36.209Z,14.12
2019-05-10T05:30:05.312Z,14.12
2019-05-10T05:32:38.443Z,14.80
2019-05-10T05:35:04.473Z,14.93
2019-05-10T05:37:33.088Z,14.87
2019-05-10T05:40:02.123Z,13.78
2019-05-10T05:42:31.265Z,13.78
2019-05-10T05:45:00.215Z,13.51
2019-05-10T05:47:28.893Z,14.23
2019-05-10T05:49:57.682Z,14.23
2019-05-10T05:52:26.649Z,14.33
2019-05-10T05:54:57.471Z,14.33
2019-05-10T05:57:27.643Z,14.63
2019-05-10T05:59:57.759Z,15.03
2019-05-10T06:02:26.648Z,13.43
2019-05-10T06:04:55.231Z,14.32
2019-05-10T06:07:24.092Z,13.89
2019-05-10T06:09:53.047Z,13.89
2019-05-10T06:12:21.793Z,13.18
2019-05-10T06:14:52.396Z,13.87
2019-05-10T06:17:23.658Z,13.57
2019-05-10T06:19:51.750Z,13.92
2019-05-10T06:22:20.691Z,14.15
2019-05-10T06:24:52.442Z,14.15
2019-05-10T06:27:19.809Z,14.59
2019-05-10T06:29:48.636Z,14.68
2019-05-10T06:32:17.559Z,14.68
2019-05-10T06:34:46.205Z,14.61
2019-05-10T06:37:14.892Z,14.89
2019-05-10T06:39:43.849Z,14.89
2019-05-10T06:42:12.665Z,15.50
2019-05-10T06:44:41.500Z,15.50
2019-05-10T06:47:11.350Z,14.92
2019-05-10T06:49:41.063Z,14.17
2019-05-10T06:52:10.493Z,14.92
2019-05-10T06:54:39.196Z,14.92
2019-05-10T06:57:11.144Z,14.79
2019-05-10T06:59:38.416Z,14.88
2019-05-10T07:02:07.050Z,14.88
2019-05-10T07:04:40.774Z,14.77
2019-05-10T07:07:09.699Z,14.82
2019-05-10T07:10:01.713Z,14.62
2019-05-10T07:12:09.256Z,14.62
2019-05-10T07:14:44.991Z,14.21
2019-05-10T07:17:07.849Z,14.67
2019-05-10T07:19:41.998Z,15.80
2019-05-10T07:22:06.887Z,16.41
2019-05-10T07:24:35.488Z,16.53
2019-05-10T07:27:05.831Z,15.14
2019-05-10T07:29:42.157Z,14.74
2019-05-10T07:32:04.938Z,15.94
2019-05-10T07:34:33.570Z,16.16
2019-05-10T07:37:02.268Z,15.87
2019-05-10T07:39:31.103Z,15.60
2019-05-10T07:42:00.611Z,15.02
2019-05-10T07:44:30.301Z,15.82
2019-05-10T07:46:59.209Z,15.31
2019-05-10T07:49:30.107Z,15.44
2019-05-10T07:52:02.235Z,15.08
2019-05-10T07:54:30.626Z,15.35
2019-05-10T07:56:59.442Z,15.77
2019-05-10T07:59:33.885Z,15.78
2019-05-10T08:01:59.023Z,15.67
2019-05-10T08:04:33.222Z,15.49
2019-05-10T08:06:59.708Z,15.71
2019-05-10T08:09:31.512Z,15.07
2019-05-10T08:12:03.316Z,15.52
2019-05-10T08:14:29.229Z,15.55
2019-05-10T08:17:01.907Z,15.42
2019-05-10T08:19:32.639Z,15.42
2019-05-10T08:22:01.730Z,15.97
2019-05-10T08:24:28.889Z,15.57
2019-05-10T08:27:08.961Z,15.60
2019-05-10T08:29:28.842Z,16.15
2019-05-10T08:31:57.549Z,15.61
2019-05-10T08:34:28.983Z,15.03
2019-05-10T08:36:56.540Z,15.11
2019-05-10T08:39:25.174Z,16.43
2019-05-10T08:42:03.904Z,15.95
2019-05-10T08:44:24.372Z,16.38
2019-05-10T08:46:52.986Z,16.35
2019-05-10T08:49:29.472Z,15.92
2019-05-10T08:51:52.397Z,16.15
2019-05-10T08:54:22.505Z,16.66
2019-05-10T08:56:53.054Z,17.47
2019-05-10T08:59:26.447Z,16.45
2019-05-10T09:01:53.864Z,17.12
2019-05-10T09:04:22.531Z,16.95
2019-05-10T09:06:55.356Z,17.44
2019-05-10T09:09:22.778Z,17.51
2019-05-10T09:11:52.223Z,16.63
2019-05-10T09:14:24.015Z,16.96
2019-05-10T09:17:00.716Z,17.95
2019-05-10T09:19:27.697Z,16.73
2019-05-10T09:21:55.080Z,15.92
2019-05-10T09:24:23.166Z,16.68
2019-05-10T09:26:56.798Z,16.43
2019-05-10T09:29:22.371Z,17.00
2019-05-10T09:31:53.478Z,16.34
2019-05-10T09:34:23.855Z,16.49
2019-05-10T09:36:52.937Z,16.84
2019-05-10T09:39:24.913Z,16.94
2019-05-10T09:41:52.788Z,18.84
2019-05-10T09:44:22.898Z,19.43
2019-05-10T09:46:52.468Z,18.94
2019-05-10T09:49:23.253Z,19.63
2019-05-10T09:51:52.796Z,19.72
2019-05-10T09:54:23.373Z,20.04
2019-05-10T09:56:52.928Z,19.51
2019-05-10T09:59:21.546Z,20.25
2019-05-10T10:01:50.173Z,20.50
2019-05-10T10:04:20.396Z,20.33
2019-05-10T10:06:52.689Z,21.51
2019-05-10T10:09:24.734Z,22.19
2019-05-10T10:11:58.088Z,22.62
2019-05-10T10:14:20.319Z,21.62
2019-05-10T10:16:58.412Z,20.90
2019-05-10T10:19:21.470Z,19.92
2019-05-10T10:21:49.766Z,18.43
2019-05-10T10:24:20.275Z,19.42
2019-05-10T10:26:54.009Z,19.25
2019-05-10T10:29:19.286Z,18.75
2019-05-10T10:31:54.787Z,20.52
2019-05-10T10:34:18.259Z,19.32
2019-05-10T10:36:47.578Z,19.45
2019-05-10T10:39:17.074Z,20.71
2019-05-10T10:41:48.074Z,22.45
2019-05-10T10:44:18.140Z,23.30
2019-05-10T10:46:47.992Z,21.22
2019-05-10T10:49:17.776Z,21.86
2019-05-10T10:51:47.233Z,22.87
2019-05-10T10:54:17.605Z,22.12
2019-05-10T10:56:48.322Z,21.65
2019-05-10T10:59:18.293Z,20.88
2019-05-10T11:01:56.624Z,21.14
2019-05-10T11:04:18.372Z,20.67
2019-05-10T11:06:47.017Z,20.16
2019-05-10T11:09:20.630Z,19.81
2019-05-10T11:11:51.518Z,20.30
2019-05-10T11:14:20.650Z,20.43
2019-05-10T11:16:52.927Z,21.80
2019-05-10T11:19:20.462Z,20.58
2019-05-10T11:21:51.203Z,19.81
2019-05-10T11:24:22.735Z,20.74
2019-05-10T11:26:51.656Z,21.01
2019-05-10T11:29:26.294Z,21.66
2019-05-10T11:32:11.352Z,21.90
2019-05-10T11:34:21.704Z,21.92
2019-05-10T11:36:51.152Z,22.57
2019-05-10T11:39:26.108Z,22.20
2019-05-10T11:41:52.945Z,21.01
2019-05-10T11:44:22.086Z,19.91
2019-05-10T11:46:51.546Z,18.79
2019-05-10T11:49:20.524Z,18.82
2019-05-10T11:51:54.846Z,18.25
2019-05-10T11:54:21.567Z,17.75
2019-05-10T11:56:52.164Z,18.02
2019-05-10T11:59:21.848Z,18.13
2019-05-10T12:01:57.973Z,18.14
2019-05-10T12:06:51.569Z,18.06
2019-05-10T12:09:24.194Z,18.64
2019-05-10T12:11:54.534Z,20.22
2019-05-10T12:14:21.914Z,19.50
2019-05-10T12:16:54.639Z,20.62
2019-05-10T12:19:21.539Z,20.94
2019-05-10T12:21:55.438Z,21.50
2019-05-10T12:24:38.710Z,20.57
2019-05-10T12:26:27.298Z,19.33
2019-05-10T12:27:18.519Z,21.46
2019-05-10T12:29:22.377Z,20.58
2019-05-10T12:31:55.103Z,20.09
2019-05-10T12:34:21.345Z,20.41
2019-05-10T12:36:51.972Z,20.73
2019-05-10T12:39:21.490Z,20.51
2019-05-10T12:41:52.998Z,21.01
2019-05-10T12:44:21.118Z,20.26
2019-05-10T12:46:50.976Z,19.70
2019-05-10T12:49:21.438Z,19.56
2019-05-10T12:51:51.330Z,18.92
2019-05-10T12:54:23.795Z,17.64
2019-05-10T12:56:51.226Z,18.86
2019-05-10T12:59:20.137Z,18.78
2019-05-10T13:01:48.789Z,17.40
2019-05-10T13:04:17.440Z,18.24
2019-05-10T13:06:46.059Z,18.01
2019-05-10T13:09:15.790Z,18.13
2019-05-10T13:11:45.155Z,18.11
2019-05-10T13:14:13.894Z,17.51
2019-05-10T13:16:42.701Z,17.22
2019-05-10T13:19:14.059Z,17.79
2019-05-10T13:21:41.915Z,18.46
2019-05-10T13:24:10.642Z,19.25
2019-05-10T13:26:39.565Z,19.12
2019-05-10T13:29:10.534Z,19.30
2019-05-10T13:31:42.893Z,17.65
2019-05-10T13:34:10.038Z,18.31
2019-05-10T13:36:39.221Z,17.81
2019-05-10T13:39:08.043Z,17.35
2019-05-10T13:41:36.678Z,17.88
2019-05-10T13:44:06.440Z,17.63
2019-05-10T13:46:35.168Z,18.01
2019-05-10T13:49:03.913Z,18.25
2019-05-10T13:51:32.539Z,18.65
2019-05-10T13:54:04.813Z,18.00
2019-05-10T13:56:31.475Z,17.99
2019-05-10T13:59:13.758Z,18.64
2019-05-10T14:01:30.421Z,18.06
2019-05-10T14:04:01.052Z,18.86
2019-05-10T14:06:29.434Z,18.04
2019-05-10T14:08:58.283Z,18.20
2019-05-10T14:11:26.954Z,18.06
2019-05-10T14:13:55.803Z,17.94
2019-05-10T14:16:24.529Z,18.46
2019-05-10T14:18:53.131Z,18.67
2019-05-10T14:21:21.792Z,18.15
2019-05-10T14:23:50.441Z,19.25
2019-05-10T14:26:19.342Z,21.52
2019-05-10T14:28:53.249Z,19.32
2019-05-10T14:31:18.476Z,19.64
2019-05-10T14:34:04.495Z,19.83
2019-05-10T14:36:17.919Z,19.80
2019-05-10T14:38:47.242Z,20.04
2019-05-10T14:41:16.930Z,20.12
2019-05-10T14:43:45.513Z,19.68
2019-05-10T14:46:14.223Z,19.79
2019-05-10T14:48:42.812Z,19.68
2019-05-10T14:51:13.838Z,19.69
2019-05-10T14:53:41.786Z,18.86
2019-05-10T14:56:14.076Z,19.35
2019-05-10T14:58:41.224Z,18.44
2019-05-10T15:01:09.832Z,18.87
2019-05-10T15:03:45.355Z,19.34
2019-05-10T15:06:10.211Z,18.91
2019-05-10T15:08:39.822Z,19.06
2019-05-10T15:11:08.425Z,19.62
2019-05-10T15:13:37.118Z,19.50
2019-05-10T15:16:09.618Z,19.19
2019-05-10T15:18:36.699Z,20.45
2019-05-10T15:21:05.333Z,19.64
2019-05-10T15:23:33.967Z,20.49
2019-05-10T15:26:10.118Z,20.55
2019-05-10T15:28:34.620Z,19.31
2019-05-10T15:31:03.760Z,19.52
2019-05-10T15:33:32.393Z,20.47
2019-05-10T15:36:01.060Z,20.42
2019-05-10T15:38:29.690Z,20.90
2019-05-10T15:40:58.580Z,21.41
2019-05-10T15:43:27.189Z,21.73
2019-05-10T15:45:55.924Z,20.98
2019-05-10T15:48:24.530Z,20.79
2019-05-10T15:50:53.334Z,20.01
2019-05-10T15:53:25.590Z,20.97
2019-05-10T15:55:52.584Z,19.88
2019-05-10T15:58:21.328Z,20.40
2019-05-10T16:00:49.988Z,20.74
2019-05-10T16:03:18.878Z,20.57
2019-05-10T16:05:59.955Z,20.24
2019-05-10T16:08:17.932Z,19.61
2019-05-10T16:10:47.257Z,19.43
2019-05-10T16:13:23.285Z,20.18
2019-05-10T16:15:46.504Z,19.04
2019-05-10T16:18:16.809Z,19.46
2019-05-10T16:20:45.505Z,19.47
2019-05-10T16:23:14.181Z,19.09
2019-05-10T16:25:48.193Z,19.78
2019-05-10T16:28:15.558Z,20.08
2019-05-10T16:30:46.936Z,19.92
2019-05-10T16:33:15.751Z,18.96
2019-05-10T16:35:49.829Z,19.31
2019-05-10T16:38:15.132Z,19.80
2019-05-10T16:40:57.306Z,19.99
2019-05-10T16:43:22.118Z,19.80
2019-05-10T16:45:46.138Z,20.65
2019-05-10T16:48:15.243Z,19.29
2019-05-10T16:50:43.864Z,20.53
2019-05-10T16:53:12.511Z,21.38
2019-05-10T16:55:43.000Z,21.22
2019-05-10T16:58:15.154Z,20.79
2019-05-10T17:00:46.244Z,19.99
2019-05-10T17:03:17.655Z,19.51
2019-05-10T17:05:53.091Z,20.56
2019-05-10T17:08:16.108Z,20.19
2019-05-10T17:10:44.729Z,20.11
2019-05-10T17:13:13.750Z,20.07
2019-05-10T17:15:42.578Z,18.96
2019-05-10T17:18:17.785Z,18.99
2019-05-10T17:20:45.454Z,20.04
2019-05-10T17:23:12.446Z,18.94
2019-05-10T17:25:42.347Z,19.32
2019-05-10T17:28:11.236Z,19.35
2019-05-10T17:30:39.855Z,18.17
2019-05-10T17:33:10.843Z,18.56
2019-05-10T17:35:42.019Z,18.44
2019-05-10T17:38:14.385Z,19.72
2019-05-10T17:40:42.350Z,19.99
2019-05-10T17:43:14.329Z,20.30
2019-05-10T17:45:42.474Z,20.04
2019-05-10T17:48:11.148Z,20.47
2019-05-10T17:50:39.783Z,20.43
2019-05-10T17:53:08.386Z,20.65
2019-05-10T17:55:37.001Z,20.64
2019-05-10T17:58:05.617Z,20.36
2019-05-10T18:00:34.257Z,20.46
2019-05-10T18:03:02.904Z,20.22
2019-05-10T18:05:31.541Z,19.74
2019-05-10T18:08:00.166Z,19.27
2019-05-10T18:10:28.775Z,19.95
2019-05-10T18:13:03.189Z,19.41
2019-05-10T18:15:32.753Z,20.06
2019-05-10T18:18:02.553Z,20.06
2019-05-10T18:20:28.545Z,20.31
2019-05-10T18:22:57.247Z,20.69
2019-05-10T18:25:25.845Z,20.53
2019-05-10T18:27:54.813Z,19.60
2019-05-10T18:30:23.781Z,19.23
2019-05-10T18:32:52.407Z,19.29
2019-05-10T18:35:21.024Z,19.92
2019-05-10T18:37:53.547Z,18.71
2019-05-10T18:40:25.286Z,18.96
2019-05-10T18:42:50.926Z,18.43
2019-05-10T18:45:23.427Z,18.97
2019-05-10T18:47:50.059Z,19.36
2019-05-10T18:50:18.799Z,19.38
2019-05-10T18:52:47.411Z,18.44
2019-05-10T18:55:16.101Z,18.44
2019-05-10T18:57:45.456Z,18.92
2019-05-10T19:00:17.753Z,19.07
2019-05-10T19:02:49.685Z,19.03
2019-05-10T19:05:16.477Z,18.58
2019-05-10T19:07:45.238Z,18.68
2019-05-10T19:10:14.008Z,18.20
2019-05-10T19:12:43.008Z,17.95
2019-05-10T19:15:15.270Z,17.79
2019-05-10T19:17:45.864Z,18.70
2019-05-10T19:20:16.346Z,18.26
2019-05-10T19:22:44.313Z,18.21
2019-05-10T19:25:14.389Z,17.94
2019-05-10T19:27:44.170Z,17.58
2019-05-10T19:30:13.603Z,17.38
2019-05-10T19:32:42.477Z,18.01
2019-05-10T19:35:11.261Z,17.69
2019-05-10T19:37:39.876Z,17.39
2019-05-10T19:40:09.760Z,17.44
2019-05-10T19:42:43.508Z,17.67
2019-05-10T19:45:12.818Z,17.41
2019-05-10T19:47:39.695Z,17.43
2019-05-10T19:50:08.476Z,17.49
2019-05-10T19:52:37.133Z,16.62
2019-05-10T19:55:05.750Z,15.72
2019-05-10T19:57:34.700Z,15.78
2019-05-10T20:00:03.416Z,17.23
2019-05-10T20:02:32.031Z,17.23
2019-05-10T20:05:00.710Z,16.34
2019-05-10T20:07:44.495Z,16.96
2019-05-10T20:09:59.689Z,17.25
2019-05-10T20:12:28.362Z,17.67
2019-05-10T20:14:57.260Z,17.52
2019-05-10T20:17:26.294Z,16.26
2019-05-10T20:19:55.026Z,15.84
2019-05-10T20:22:23.899Z,14.96
2019-05-10T20:24:52.547Z,15.12
2019-05-10T20:27:21.392Z,14.95
2019-05-10T20:29:50.048Z,14.77
2019-05-10T20:32:18.809Z,14.77
2019-05-10T20:34:47.488Z,14.68
2019-05-10T20:37:16.125Z,14.71
2019-05-10T20:39:44.728Z,14.50
2019-05-10T20:42:13.403Z,13.58
2019-05-10T20:44:42.092Z,13.78
2019-05-10T20:47:10.813Z,15.67
2019-05-10T20:49:39.498Z,15.67
2019-05-10T20:52:08.119Z,17.20
2019-05-10T20:54:36.867Z,17.20
2019-05-10T20:57:05.722Z,17.03
2019-05-10T20:59:34.353Z,17.03
2019-05-10T21:02:03.144Z,17.12
2019-05-10T21:04:32.009Z,17.12
2019-05-10T21:07:00.677Z,17.07
2019-05-10T21:09:29.356Z,16.70
2019-05-10T21:11:57.984Z,16.11
2019-05-10T21:14:26.662Z,16.40
2019-05-10T21:16:55.626Z,16.40
2019-05-10T21:19:24.269Z,16.64
2019-05-10T21:21:53.152Z,16.67
2019-05-10T21:24:21.820Z,16.86
2019-05-10T21:26:50.511Z,16.49
2019-05-10T21:29:19.519Z,16.49
2019-05-10T21:31:48.187Z,15.93
2019-05-10T21:34:17.064Z,16.56
2019-05-10T21:36:45.977Z,16.56
2019-05-10T21:39:14.637Z,16.90
2019-05-10T21:41:43.245Z,16.90
2019-05-10T21:44:11.920Z,16.81
2019-05-10T21:46:40.598Z,16.81
2019-05-10T21:49:09.456Z,16.78
2019-05-10T21:51:38.588Z,16.84
2019-05-10T21:54:07.426Z,16.84
2019-05-10T21:56:37.268Z,16.68
2019-05-10T21:59:06.281Z,16.73
2019-05-10T22:01:35.208Z,16.55
2019-05-10T22:04:03.880Z,16.55
2019-05-10T22:06:32.497Z,16.91
2019-05-10T22:09:01.852Z,16.50
2019-05-10T22:11:32.786Z,16.16
2019-05-10T22:14:01.586Z,16.60
2019-05-10T22:16:30.468Z,15.78
2019-05-10T22:19:00.889Z,16.50
2019-05-10T22:21:29.906Z,16.37
2019-05-10T22:23:58.575Z,16.26
2019-05-10T22:26:27.185Z,16.64
2019-05-10T22:28:57.043Z,16.64
2019-05-10T22:31:25.645Z,16.31
2019-05-10T22:33:54.513Z,16.12
2019-05-10T22:36:23.143Z,16.12
2019-05-10T22:39:05.626Z,16.42
2019-05-10T22:41:22.123Z,16.42
2019-05-10T22:43:50.717Z,16.49
2019-05-10T22:46:19.395Z,16.49
2019-05-10T22:48:48.087Z,16.58
2019-05-10T22:51:16.717Z,16.28
2019-05-10T22:53:53.247Z,15.94
2019-05-10T22:56:15.916Z,15.94
2019-05-10T22:58:44.555Z,16.13
2019-05-10T23:01:13.311Z,16.63
2019-05-10T23:03:42.218Z,16.63
2019-05-10T23:06:12.401Z,16.18
2019-05-10T23:08:41.007Z,16.53
2019-05-10T23:11:09.726Z,16.53
2019-05-10T23:13:38.609Z,16.78
2019-05-10T23:16:07.223Z,16.41
2019-05-10T23:18:35.817Z,16.28
2019-05-10T23:21:04.416Z,16.28
2019-05-10T23:23:33.074Z,15.91
2019-05-10T23:26:01.922Z,15.57
2019-05-10T23:28:30.929Z,15.57
2019-05-10T23:30:59.524Z,15.89
2019-05-10T23:33:28.114Z,15.79
2019-05-10T23:35:56.955Z,17.04
2019-05-10T23:38:25.813Z,16.76
2019-05-10T23:40:54.669Z,16.76
2019-05-10T23:43:23.343Z,15.97
2019-05-10T23:45:51.937Z,16.69
2019-05-10T23:48:21.038Z,16.69
2019-05-10T23:50:49.913Z,14.94
2019-05-10T23:53:18.567Z,15.13
2019-05-10T23:55:47.162Z,16.01
2019-05-10T23:58:15.752Z,15.43
